Antlers Park, Minnesota
Current Conditions -  °F | °C
As of 4:04 AM on Monday 22 Dec 2014 (Local Time) from KLVN Reporting Station
Haze Haze  
Wind Chill: 28°   Ceiling: 600
Heat Index: 36°   Visibility: 5mi
Dew Point: 36°   Wind: 12mph
Humidity: 100%   Direction: 160°SSE
Pressure: 29.67"   Gusts: NA
Location:  44.6349°N, 93.283°W
Report Text: KLVN 221004Z AUTO 16010KT 5SM BR OVC006 02/02 A2967 RMK AO2
Loading
Personal Weather Stations






























Interactive Weather Map New forecast layout! Learn more

10-Day Weather Forecast

Advertisements
Track Severe Weather on mobile